Flight Track Log - Related Links

Times and Time Zones

All times are in EDT time to prevent confusion due to time zone crossing. See the EGF3796 flight status page for this flight to view local times or setup timezone preferences in your user account.

Time Position Orientation Groundspeed Altitude Reporting Facility
EDT Latitude Longitude Course Direction KTS MPH feet Rate Location/Type
Thu 09:30:09 PM 41.9500 -87.9000 194° South 166 191 1,900  Level Chicago TRACON
Thu 09:31:03 PM 41.9000 -87.9500 217° Southwest 241 277 4,300 3,021 Climbing Chicago TRACON
Thu 09:32:00 PM 41.6905 -88.0331 203° Southwest  Level FlightAware Approximate
Thu 09:32:34 PM 41.8139 -88.0339 216° Southwest 263 303 9,200  Level Chicago Center
Thu 09:33:00 PM 41.5964 -88.0848 197° South  Level FlightAware Approximate
Thu 09:33:36 PM 41.7325 -88.0628 195° South 297 342 12,400  Level Chicago Center
Thu 09:34:00 PM 41.4989 -88.1238 197° South  Level FlightAware Approximate
Thu 09:34:38 PM 41.6297 -88.1011 196° South 364 419 13,500  Level Chicago Center
Thu 09:35:00 PM 41.4010 -88.1608 194° South  Level FlightAware Approximate
Thu 09:35:40 PM 41.5314 -88.1356 195° South 396 456 15,700  Level Chicago Center
Thu 09:36:42 PM 41.4042 -88.1819 195° South 411 473 18,200 2,274 Climbing Chicago Center
Thu 09:37:44 PM 41.2964 -88.2289 198° South 417 480 20,400 1,839 Climbing Chicago Center
Thu 09:38:46 PM 41.1853 -88.2800 199° South 425 489 22,000 1,500 Climbing Chicago Center
Thu 09:39:48 PM 41.0703 -88.3314 199° South 437 503 23,500 1,463 Climbing Chicago Center
Thu 09:40:49 PM 40.9525 -88.3842 199° South 446 513 25,000 1,463 Climbing Chicago Center
Thu 09:41:51 PM 40.8067 -88.4481 198° South 459 528 26,500 1,452 Climbing Chicago Center
Thu 09:42:53 PM 40.6806 -88.4914 195° South 475 547 28,000 1,645 Climbing Chicago Center
Thu 09:43:55 PM 40.5517 -88.5208 190° South 473 544 29,900 1,597 Climbing Chicago Center
Thu 09:44:57 PM 40.4325 -88.5558 193° South 462 532 31,300 1,016 Climbing Chicago Center
Thu 09:45:59 PM 40.3167 -88.6228 204° Southwest 454 522 32,000 634 Climbing Chicago Center
Thu 09:47:00 PM 40.2225 -88.7336 222° Southwest 459 528 32,600 927 Climbing Chicago Center
Thu 09:48:02 PM 40.1425 -88.8500 228° Southwest 441 507 33,900 1,415 Climbing Chicago Center
Thu 09:48:46 PM 40.0831 -88.9394 229° Southwest 422 486 35,100 1,500 Climbing Kansas City Center
Thu 09:49:50 PM 40.0083 -89.0489 228° Southwest 409 471 36,600 1,200 Climbing Kansas City Center
Thu 09:50:51 PM 39.9350 -89.1550 228° Southwest 398 458 37,600 689 Climbing Kansas City Center
Thu 09:51:52 PM 39.8611 -89.2625 228° Southwest 397 457 38,000 197 Climbing Kansas City Center
Thu 09:52:53 PM 39.7697 -89.3961 228° Southwest 407 468 38,000  Level Kansas City Center
Thu 09:53:56 PM 39.6914 -89.5081 228° Southwest 412 474 38,000  Level Kansas City Center
Thu 09:54:57 PM 39.6161 -89.6189 229° Southwest 412 474 38,000  Level Kansas City Center
Thu 09:55:58 PM 39.5400 -89.7289 228° Southwest 411 473 38,000  Level Kansas City Center
Thu 09:57:00 PM 39.4625 -89.8389 228° Southwest 414 476 38,000  Level Kansas City Center
Thu 09:58:00 PM 39.3853 -89.9492 228° Southwest 414 476 38,000  Level Kansas City Center
Thu 09:59:04 PM 39.3083 -90.0586 228° Southwest 413 475 38,000  Level Kansas City Center
Thu 10:00:05 PM 39.2328 -90.1675 228° Southwest 410 472 38,000  Level Kansas City Center
Thu 10:01:05 PM 39.1406 -90.2967 227° Southwest 410 472 38,000  Level Kansas City Center
Thu 10:02:09 PM 39.0650 -90.4039 228° Southwest 409 471 38,000  Level Kansas City Center
Thu 10:03:09 PM 38.9886 -90.5117 228° Southwest 410 472 38,000  Level Kansas City Center
Thu 10:04:11 PM 38.9131 -90.6156 227° Southwest 401 461 38,000  Level Kansas City Center
Thu 10:05:13 PM 38.8356 -90.7236 227° Southwest 420 483 38,000  Level Kansas City Center
Thu 10:06:14 PM 38.7603 -90.8303 228° Southwest 415 478 38,000  Level Kansas City Center
Thu 10:07:14 PM 38.6678 -90.9567 227° Southwest 412 474 38,000  Level Kansas City Center
Thu 10:08:18 PM 38.5900 -91.0644 227° Southwest 416 479 38,000  Level Kansas City Center
Thu 10:09:19 PM 38.5131 -91.1683 227° Southwest 409 471 38,000  Level Kansas City Center
Thu 10:10:20 PM 38.4353 -91.2764 227° Southwest 414 476 38,000  Level Kansas City Center
Thu 10:11:21 PM 38.3536 -91.3858 226° Southwest 400 460 38,000  Level Kansas City Center
Thu 10:12:22 PM 38.2764 -91.4878 226° Southwest 398 458 38,000  Level Kansas City Center
Thu 10:13:23 PM 38.2014 -91.5894 227° Southwest 394 453 38,000  Level Kansas City Center
Thu 10:14:26 PM 38.1275 -91.6889 227° Southwest 387 445 38,000  Level Kansas City Center
Thu 10:15:27 PM 38.0531 -91.7892 227° Southwest 385 443 38,000  Level Kansas City Center
Thu 10:16:28 PM 37.9806 -91.8864 227° Southwest 373 429 38,000  Level Kansas City Center
Thu 10:17:31 PM 37.9078 -91.9856 227° Southwest 377 434 38,000  Level Kansas City Center
Thu 10:18:31 PM 37.8311 -92.0875 226° Southwest 377 434 38,000  Level Kansas City Center
Thu 10:19:32 PM 37.7578 -92.1833 226° Southwest 378 435 38,000 -480 Level Kansas City Center
Thu 10:20:36 PM 37.6844 -92.2814 227° Southwest 382 440 37,000 -1,392 Descending Kansas City Center
Thu 10:21:37 PM 37.5947 -92.4011 227° Southwest 387 445 35,100 -1,525 Descending Kansas City Center
Thu 10:22:38 PM 37.5156 -92.5036 226° Southwest 394 453 33,900 -1,785 Descending Kansas City Center
Thu 10:23:38 PM 37.4350 -92.6117 227° Southwest 407 468 31,500 -2,661 Descending Kansas City Center
Thu 10:24:42 PM 37.3556 -92.7153 226° Southwest 411 473 28,400 -2,952 Descending Kansas City Center
Thu 10:25:42 PM 37.2806 -92.8153 227° Southwest 399 459 25,400 -2,876 Descending Kansas City Center
Thu 10:26:43 PM 37.2019 -92.9139 225° Southwest 396 456 22,600 -2,262 Descending Kansas City Center
Thu 10:27:44 PM 37.1242 -93.0139 226° Southwest 399 459 20,800 -1,672 Descending Kansas City Center
Thu 10:28:45 PM 37.0478 -93.1131 226° Southwest 394 453 19,200 -1,392 Descending Kansas City Center
Thu 10:29:49 PM 36.9689 -93.2131 225° Southwest 401 461 17,900 -1,392 Descending Kansas City Center
Thu 10:30:50 PM 36.8936 -93.3117 226° Southwest 397 457 16,300 -1,587 Descending Kansas City Center
Thu 10:31:50 PM 36.8175 -93.4058 225° Southwest 390 449 14,700 -1,388 Descending Kansas City Center
Thu 10:32:51 PM 36.7442 -93.4972 225° Southwest 381 438 13,500 -1,306 Descending Kansas City Center
Thu 10:33:54 PM 36.6586 -93.6078 226° Southwest 373 429 12,000 -1,355 Descending Kansas City Center
Thu 10:34:55 PM 36.5972 -93.6894 227° Southwest 356 410 10,700 -1,475 Descending Kansas City Center
Thu 10:35:56 PM 36.5458 -93.7489 223° Southwest 302 348 9,000 -1,339 Descending Kansas City Center
Thu 10:36:56 PM 36.5042 -93.8164 232° Southwest 278 320 8,000 -496 Descending Kansas City Center
Thu 10:37:57 PM 36.5094 -93.9106 274° West 277 319 8,000  Level Kansas City Center
Thu 10:38:59 PM 36.5167 -94.0017 276° West 270 311 8,000 -145 Level Kansas City Center
Thu 10:40:01 PM 36.5203 -94.0928 273° West 266 306 7,700 -787 Descending Kansas City Center
Thu 10:41:01 PM 36.5100 -94.1794 262° West 256 295 6,400 -1,210 Descending Kansas City Center
Thu 10:42:05 PM 36.4919 -94.2750 257° West 246 283 5,200 -912 Descending Kansas City Center
Thu 10:43:06 PM 36.4578 -94.3303 232° Southwest 215 247 4,500 -689 Descending Kansas City Center

Login

Don't have an account? Register now (free) for customized features, flight alerts, and more!